Time;durP1;ratioP1;P1;durP2;ratioP2;P2;SDS_P1;SDS_P2;PMS_P1;PMS_P2;Temp;Humidity;BMP_temperature;BMP_pressure;BME280_temperature;BME280_humidity;BME280_pressure;Samples;Min_cycle;Max_cycle;Signal;HPM_P1;HPM_P2
2022/09/09 00:00:07;;;;;;;18.27;13.90;;;;;;;;;;5025143;28;20042;-74
2022/09/09 00:02:32;;;;;;;19.45;15.20;;;;;;;;;;5027740;28;20060;-74
2022/09/09 00:05:01;;;;;;;17.95;13.60;;;;;;;;;;5026086;28;20510;-74
2022/09/09 00:07:38;;;;;;;20.88;14.98;;;;;;;;;;5024380;28;20065;-74
2022/09/09 00:10:07;;;;;;;17.23;13.80;;;;;;;;;;5025691;28;20069;-74
2022/09/09 00:12:55;;;;;;;18.15;14.45;;;;;;;;;;5029340;28;20042;-74
2022/09/09 00:15:23;;;;;;;18.75;14.73;;;;;;;;;;5024626;28;20038;-74
2022/09/09 00:18:02;;;;;;;22.63;14.95;;;;;;;;;;5029379;28;20049;-74
2022/09/09 00:20:32;;;;;;;17.92;14.02;;;;;;;;;;5024712;28;20353;-74
2022/09/09 00:23:06;;;;;;;17.73;14.00;;;;;;;;;;5028881;28;20049;-74
2022/09/09 00:25:40;;;;;;;19.48;14.23;;;;;;;;;;5025994;28;20076;-74
2022/09/09 00:28:14;;;;;;;21.00;14.10;;;;;;;;;;5026767;28;20057;-74
2022/09/09 00:30:41;;;;;;;18.00;13.93;;;;;;;;;;5025316;28;20109;-74
2022/09/09 00:33:14;;;;;;;19.80;14.40;;;;;;;;;;5011500;28;20491;-74
2022/09/09 00:35:44;;;;;;;23.45;15.55;;;;;;;;;;5026194;28;20050;-74
2022/09/09 00:38:32;;;;;;;16.80;14.20;;;;;;;;;;5029601;28;20105;-74
2022/09/09 00:41:17;;;;;;;20.70;13.88;;;;;;;;;;5029169;28;20120;-74
2022/09/09 00:43:47;;;;;;;19.42;14.40;;;;;;;;;;5030394;28;20042;-74
2022/09/09 00:46:32;;;;;;;17.92;14.52;;;;;;;;;;5031914;28;20081;-74
2022/09/09 00:49:25;;;;;;;22.23;14.63;;;;;;;;;;5024875;28;20045;-74
2022/09/09 00:52:03;;;;;;;17.08;13.70;;;;;;;;;;5027739;28;20479;-74
2022/09/09 00:54:37;;;;;;;21.50;13.60;;;;;;;;;;5032814;28;20069;-75
2022/09/09 00:57:23;;;;;;;16.13;13.23;;;;;;;;;;5032133;28;20048;-75
2022/09/09 00:59:51;;;;;;;16.13;12.45;;;;;;;;;;5032940;28;20061;-75
2022/09/09 01:02:28;;;;;;;19.13;12.55;;;;;;;;;;5030670;28;20084;-75
2022/09/09 01:04:54;;;;;;;16.95;12.25;;;;;;;;;;5017747;28;20056;-74
2022/09/09 01:07:20;;;;;;;17.58;13.38;;;;;;;;;;5013873;28;20050;-75
2022/09/09 01:10:04;;;;;;;19.95;12.55;;;;;;;;;;5032609;28;20561;-75
2022/09/09 01:12:35;;;;;;;14.52;12.43;;;;;;;;;;5028216;28;20038;-75
2022/09/09 01:15:09;;;;;;;15.30;11.93;;;;;;;;;;5008485;28;20050;-75
2022/09/09 01:18:02;;;;;;;17.38;12.20;;;;;;;;;;5005427;28;20046;-75
2022/09/09 01:20:47;;;;;;;19.92;12.48;;;;;;;;;;5029210;28;20046;-75
2022/09/09 01:23:22;;;;;;;19.30;12.57;;;;;;;;;;5035489;28;20042;-75
2022/09/09 01:26:03;;;;;;;16.45;11.77;;;;;;;;;;5018054;28;20113;-75
2022/09/09 01:28:30;;;;;;;16.15;12.02;;;;;;;;;;5033748;28;20589;-75
2022/09/09 01:30:57;;;;;;;17.70;11.73;;;;;;;;;;5034660;28;20049;-75
2022/09/09 01:33:23;;;;;;;18.33;10.65;;;;;;;;;;5035589;28;20038;-75
2022/09/09 01:35:50;;;;;;;19.15;10.70;;;;;;;;;;5034507;28;20080;-75
2022/09/09 01:38:17;;;;;;;16.35;10.70;;;;;;;;;;5030528;28;20114;-75
2022/09/09 01:40:43;;;;;;;13.93;8.88;;;;;;;;;;5028953;28;20073;-75
2022/09/09 01:43:09;;;;;;;19.85;8.90;;;;;;;;;;5023863;28;20030;-74
2022/09/09 01:45:35;;;;;;;13.55;8.60;;;;;;;;;;5031600;28;20030;-74
2022/09/09 01:48:02;;;;;;;16.60;7.65;;;;;;;;;;5028413;28;20033;-75
2022/09/09 01:50:28;;;;;;;14.98;6.95;;;;;;;;;;5016331;28;20038;-74
2022/09/09 01:52:57;;;;;;;12.32;7.38;;;;;;;;;;5034700;28;20045;-74
2022/09/09 01:55:28;;;;;;;10.88;7.30;;;;;;;;;;5031594;28;20042;-75
2022/09/09 01:57:54;;;;;;;;;;;;;;;;;;5023474;28;20056;-75
2022/09/09 02:00:20;;;;;;;9.60;5.40;;;;;;;;;;5030092;28;19921;-75
2022/09/09 02:03:07;;;;;;;11.75;6.10;;;;;;;;;;5032061;28;20042;-75
2022/09/09 02:05:39;;;;;;;11.55;5.97;;;;;;;;;;5027063;28;20038;-75
2022/09/09 02:08:16;;;;;;;11.80;6.55;;;;;;;;;;5031323;28;20053;-75
2022/09/09 02:11:11;;;;;;;14.30;6.57;;;;;;;;;;5028056;28;20042;-75
2022/09/09 02:13:38;;;;;;;16.33;6.13;;;;;;;;;;5013292;28;20050;-75
2022/09/09 02:16:43;;;;;;;10.27;6.32;;;;;;;;;;5029644;28;20077;-75
2022/09/09 02:19:09;;;;;;;12.82;6.13;;;;;;;;;;4947861;29;20047;-75
2022/09/09 02:21:36;;;;;;;14.45;6.82;;;;;;;;;;4953119;29;20063;-75
2022/09/09 02:24:05;;;;;;;9.70;6.10;;;;;;;;;;4952529;29;20043;-75
2022/09/09 02:26:33;;;;;;;12.13;6.75;;;;;;;;;;4950848;29;20059;-75
2022/09/09 02:29:00;;;;;;;13.00;7.32;;;;;;;;;;4936872;29;20060;-75
2022/09/09 02:31:26;;;;;;;11.63;6.97;;;;;;;;;;4926328;29;20052;-75
2022/09/09 02:33:54;;;;;;;14.05;7.35;;;;;;;;;;4941579;29;20071;-75
2022/09/09 02:36:22;;;;;;;12.77;7.88;;;;;;;;;;4948647;29;20107;-75
2022/09/09 02:38:50;;;;;;;12.63;7.18;;;;;;;;;;4944997;29;20047;-75
2022/09/09 02:41:20;;;;;;;11.48;7.60;;;;;;;;;;4947263;29;20071;-75
2022/09/09 02:43:46;;;;;;;14.20;7.78;;;;;;;;;;4949469;29;20119;-75
2022/09/09 02:46:37;;;;;;;11.70;8.30;;;;;;;;;;4942741;29;20135;-75
2022/09/09 02:49:17;;;;;;;15.73;8.68;;;;;;;;;;4946830;28;20133;-75
2022/09/09 02:51:50;;;;;;;11.05;7.43;;;;;;;;;;5008882;28;20046;-75
2022/09/09 02:54:25;;;;;;;12.38;8.25;;;;;;;;;;5008334;28;20046;-75
2022/09/09 02:56:55;;;;;;;15.35;9.43;;;;;;;;;;4990205;28;20082;-75
2022/09/09 02:59:22;;;;;;;14.40;9.70;;;;;;;;;;5008028;28;20043;-75
2022/09/09 03:01:48;;;;;;;13.82;9.55;;;;;;;;;;4995127;28;20070;-75
2022/09/09 03:04:14;;;;;;;11.90;7.70;;;;;;;;;;5008312;28;20042;-75
2022/09/09 03:06:40;;;;;;;14.05;8.98;;;;;;;;;;4992657;28;20054;-75
2022/09/09 03:09:07;;;;;;;15.20;9.50;;;;;;;;;;5007201;28;20038;-75
2022/09/09 03:11:33;;;;;;;13.40;10.02;;;;;;;;;;5007397;28;20045;-74
2022/09/09 03:13:59;;;;;;;13.93;9.32;;;;;;;;;;5009481;28;20481;-75
2022/09/09 03:16:26;;;;;;;13.45;9.63;;;;;;;;;;5007046;28;20075;-75
2022/09/09 03:18:52;;;;;;;13.45;8.55;;;;;;;;;;5005515;28;20129;-75
2022/09/09 03:21:18;;;;;;;13.48;7.88;;;;;;;;;;5008529;28;20050;-75
2022/09/09 03:23:44;;;;;;;12.85;8.70;;;;;;;;;;5010770;28;20042;-75
2022/09/09 03:26:11;;;;;;;14.60;9.20;;;;;;;;;;5011360;28;20046;-75
2022/09/09 03:28:37;;;;;;;13.63;9.05;;;;;;;;;;5020874;28;20080;-75
2022/09/09 03:31:04;;;;;;;13.73;9.25;;;;;;;;;;5022751;28;20049;-75
2022/09/09 03:33:31;;;;;;;12.20;7.75;;;;;;;;;;5031718;28;20052;-75
2022/09/09 03:35:57;;;;;;;14.45;9.55;;;;;;;;;;5029874;28;20132;-75
2022/09/09 03:38:23;;;;;;;12.73;9.10;;;;;;;;;;5025206;28;20061;-75
2022/09/09 03:40:51;;;;;;;13.68;9.52;;;;;;;;;;5024466;28;20046;-75
2022/09/09 03:43:17;;;;;;;15.20;9.00;;;;;;;;;;5026096;28;20069;-75
2022/09/09 03:45:47;;;;;;;13.13;8.63;;;;;;;;;;5026514;28;20467;-75
2022/09/09 03:48:13;;;;;;;12.90;8.48;;;;;;;;;;5024133;28;20057;-75
2022/09/09 03:50:39;;;;;;;12.90;7.50;;;;;;;;;;5023999;28;20038;-75
2022/09/09 03:53:05;;;;;;;13.13;7.80;;;;;;;;;;5026314;28;20046;-75
2022/09/09 03:55:32;;;;;;;9.65;6.70;;;;;;;;;;5023706;28;20508;-75
2022/09/09 03:58:00;;;;;;;11.18;6.60;;;;;;;;;;5018738;28;20053;-75
2022/09/09 04:00:26;;;;;;;12.20;6.22;;;;;;;;;;5021664;28;20049;-75
2022/09/09 04:02:55;;;;;;;9.80;5.88;;;;;;;;;;5023615;28;20053;-75
2022/09/09 04:05:21;;;;;;;9.05;4.40;;;;;;;;;;5022661;28;20045;-75
2022/09/09 04:07:47;;;;;;;10.25;4.43;;;;;;;;;;5021449;28;20045;-75
2022/09/09 04:10:15;;;;;;;8.23;4.05;;;;;;;;;;5021020;28;20049;-75
2022/09/09 04:12:41;;;;;;;7.90;3.67;;;;;;;;;;5022625;28;20508;-75
2022/09/09 04:15:08;;;;;;;7.80;3.97;;;;;;;;;;5022195;28;20122;-75
2022/09/09 04:17:34;;;;;;;5.88;3.40;;;;;;;;;;5019802;28;20677;-75
2022/09/09 04:20:01;;;;;;;8.25;3.42;;;;;;;;;;5021842;28;20053;-75
2022/09/09 04:22:27;;;;;;;6.50;2.80;;;;;;;;;;5021795;28;20056;-75
2022/09/09 04:24:53;;;;;;;8.13;2.63;;;;;;;;;;5020571;28;20133;-74
2022/09/09 04:27:19;;;;;;;7.55;2.85;;;;;;;;;;5014097;28;20508;-74
2022/09/09 04:29:45;;;;;;;6.38;3.40;;;;;;;;;;5016629;28;20124;-74
2022/09/09 04:32:11;;;;;;;8.20;3.83;;;;;;;;;;5022511;28;20065;-74
2022/09/09 04:34:37;;;;;;;9.13;4.78;;;;;;;;;;5021993;28;20111;-74
2022/09/09 04:37:03;;;;;;;10.32;6.00;;;;;;;;;;5009471;28;20534;-74
2022/09/09 04:39:29;;;;;;;9.27;6.25;;;;;;;;;;5015284;28;20088;-74
2022/09/09 04:41:55;;;;;;;12.48;7.32;;;;;;;;;;5019127;28;20067;-74
2022/09/09 04:44:21;;;;;;;10.70;7.20;;;;;;;;;;5017261;28;20042;-74
2022/09/09 04:46:47;;;;;;;13.93;8.40;;;;;;;;;;5016210;28;20057;-74
2022/09/09 04:49:13;;;;;;;13.02;8.50;;;;;;;;;;5015873;28;20500;-74
2022/09/09 04:51:42;;;;;;;12.02;8.90;;;;;;;;;;5017214;28;20128;-75
2022/09/09 04:54:08;;;;;;;12.57;8.80;;;;;;;;;;5017528;28;20488;-75
2022/09/09 04:56:36;;;;;;;13.95;8.73;;;;;;;;;;5013094;28;20065;-74
2022/09/09 04:59:02;;;;;;;13.68;8.40;;;;;;;;;;5014966;28;20049;-74
2022/09/09 05:01:29;;;;;;;14.70;8.80;;;;;;;;;;5010659;28;20465;-74
2022/09/09 05:03:55;;;;;;;13.60;9.07;;;;;;;;;;5009331;28;20084;-74
2022/09/09 05:06:22;;;;;;;12.75;8.70;;;;;;;;;;5013981;28;20042;-74
2022/09/09 05:08:49;;;;;;;13.60;9.13;;;;;;;;;;5003539;28;20044;-74
2022/09/09 05:11:28;;;;;;;10.93;8.65;;;;;;;;;;4975542;28;20061;-74
2022/09/09 05:13:54;;;;;;;11.98;8.68;;;;;;;;;;5009316;28;20055;-74
2022/09/09 05:16:21;;;;;;;13.25;9.38;;;;;;;;;;5017381;28;20077;-74
2022/09/09 05:18:47;;;;;;;14.63;8.73;;;;;;;;;;5011053;28;20053;-74
2022/09/09 05:21:14;;;;;;;13.75;8.32;;;;;;;;;;5018158;28;20050;-75
2022/09/09 05:23:40;;;;;;;10.70;7.95;;;;;;;;;;5012491;28;20092;-74
2022/09/09 05:26:07;;;;;;;11.90;8.43;;;;;;;;;;5016124;28;20523;-74
2022/09/09 05:28:35;;;;;;;13.98;8.85;;;;;;;;;;5007931;28;20727;-75
2022/09/09 05:31:05;;;;;;;14.63;8.55;;;;;;;;;;4997331;28;20046;-74
2022/09/09 05:33:33;;;;;;;11.98;9.30;;;;;;;;;;5000069;28;20088;-75
2022/09/09 05:36:06;;;;;;;14.05;10.40;;;;;;;;;;5001200;28;20090;-75
2022/09/09 05:38:32;;;;;;;13.98;9.85;;;;;;;;;;4987195;28;20054;-75
2022/09/09 05:40:59;;;;;;;11.63;10.00;;;;;;;;;;4996738;28;20363;-75
2022/09/09 05:43:26;;;;;;;11.98;9.13;;;;;;;;;;4997310;28;20483;-74
2022/09/09 05:46:01;;;;;;;12.18;9.38;;;;;;;;;;4998318;28;20124;-75
2022/09/09 05:48:34;;;;;;;14.60;9.40;;;;;;;;;;4970097;28;20047;-74
2022/09/09 05:51:01;;;;;;;13.70;8.93;;;;;;;;;;4961648;28;20082;-74
2022/09/09 05:53:27;;;;;;;11.43;9.63;;;;;;;;;;5003589;28;20057;-74
2022/09/09 05:56:04;;;;;;;12.43;8.70;;;;;;;;;;5003393;28;20577;-74
2022/09/09 05:58:33;;;;;;;12.73;9.57;;;;;;;;;;5005636;28;20050;-75
2022/09/09 06:01:03;;;;;;;13.85;9.23;;;;;;;;;;5006869;28;20046;-74
2022/09/09 06:03:29;;;;;;;11.60;9.23;;;;;;;;;;4997318;28;20042;-75
2022/09/09 06:06:05;;;;;;;13.00;9.15;;;;;;;;;;5017172;28;20301;-75
2022/09/09 06:08:31;;;;;;;11.52;8.38;;;;;;;;;;5012898;28;20054;-74
2022/09/09 06:11:04;;;;;;;11.50;8.18;;;;;;;;;;5012652;28;20078;-74
2022/09/09 06:13:30;;;;;;;13.07;8.10;;;;;;;;;;5006482;28;20042;-74
2022/09/09 06:15:58;;;;;;;8.60;7.20;;;;;;;;;;4997558;28;20500;-74
2022/09/09 06:18:24;;;;;;;10.98;6.88;;;;;;;;;;5001774;28;20117;-74
2022/09/09 06:20:56;;;;;;;9.65;6.88;;;;;;;;;;4999740;28;20104;-74
2022/09/09 06:23:22;;;;;;;9.40;6.20;;;;;;;;;;4999707;28;20050;-74
2022/09/09 06:25:48;;;;;;;13.20;5.70;;;;;;;;;;4965327;28;20106;-74
2022/09/09 06:28:15;;;;;;;9.95;5.75;;;;;;;;;;5011160;28;20085;-74
2022/09/09 06:30:41;;;;;;;7.00;4.97;;;;;;;;;;5028336;28;20084;-74
2022/09/09 06:33:07;;;;;;;10.05;4.80;;;;;;;;;;5025890;28;20068;-74
2022/09/09 06:35:33;;;;;;;8.48;4.55;;;;;;;;;;5010504;28;20046;-74
2022/09/09 06:37:59;;;;;;;7.47;4.55;;;;;;;;;;5028244;28;20046;-74
2022/09/09 06:40:25;;;;;;;9.35;4.57;;;;;;;;;;5031238;28;20057;-75
2022/09/09 06:42:51;;;;;;;7.72;4.60;;;;;;;;;;5027999;28;20046;-74
2022/09/09 06:45:17;;;;;;;9.73;4.70;;;;;;;;;;5030145;28;20098;-74
2022/09/09 06:47:44;;;;;;;7.32;3.97;;;;;;;;;;5030946;28;20060;-74
2022/09/09 06:50:10;;;;;;;7.13;4.30;;;;;;;;;;5031123;28;20076;-74
2022/09/09 06:52:37;;;;;;;8.88;4.88;;;;;;;;;;5030885;28;20057;-74
2022/09/09 06:55:03;;;;;;;9.23;4.95;;;;;;;;;;5031402;28;20050;-74
2022/09/09 06:57:29;;;;;;;7.82;4.63;;;;;;;;;;5014500;28;20025;-74
2022/09/09 06:59:55;;;;;;;8.23;4.38;;;;;;;;;;5013880;28;20042;-74
2022/09/09 07:02:21;;;;;;;7.32;4.82;;;;;;;;;;5030878;28;20054;-74
2022/09/09 07:04:50;;;;;;;8.55;5.43;;;;;;;;;;5030397;28;20046;-74
2022/09/09 07:07:17;;;;;;;8.68;5.35;;;;;;;;;;5030148;28;20050;-74
2022/09/09 07:09:45;;;;;;;10.02;5.47;;;;;;;;;;5030050;28;20074;-74
2022/09/09 07:12:12;;;;;;;9.45;6.00;;;;;;;;;;5015533;28;20088;-74
2022/09/09 07:14:39;;;;;;;8.93;5.65;;;;;;;;;;5034297;28;20072;-74
2022/09/09 07:17:05;;;;;;;8.98;5.60;;;;;;;;;;5032911;28;20045;-75
2022/09/09 07:19:31;;;;;;;9.70;6.15;;;;;;;;;;5016162;28;20034;-75
2022/09/09 07:21:57;;;;;;;9.82;6.03;;;;;;;;;;5033851;28;20046;-74
2022/09/09 07:24:23;;;;;;;9.25;6.05;;;;;;;;;;5034964;28;20030;-74
2022/09/09 07:26:49;;;;;;;9.60;5.93;;;;;;;;;;5035393;28;20087;-74
2022/09/09 07:29:15;;;;;;;10.60;7.18;;;;;;;;;;5032738;28;20054;-75
2022/09/09 07:31:42;;;;;;;8.00;5.80;;;;;;;;;;5025022;28;20061;-74
2022/09/09 07:34:08;;;;;;;11.02;5.95;;;;;;;;;;5036670;28;20049;-74
2022/09/09 07:36:36;;;;;;;10.05;5.95;;;;;;;;;;5035738;28;20085;-74
2022/09/09 07:39:04;;;;;;;14.48;6.32;;;;;;;;;;5034449;28;20046;-74
2022/09/09 07:41:40;;;;;;;11.40;4.90;;;;;;;;;;5033468;28;20081;-74
2022/09/09 07:44:07;;;;;;;15.02;5.60;;;;;;;;;;5034961;28;20042;-74
2022/09/09 07:46:34;;;;;;;10.35;4.50;;;;;;;;;;5035184;28;20048;-74
2022/09/09 07:49:00;;;;;;;8.65;4.53;;;;;;;;;;5035691;28;20110;-74
2022/09/09 07:51:28;;;;;;;10.43;4.20;;;;;;;;;;5035188;28;20046;-74
2022/09/09 07:53:59;;;;;;;9.93;4.20;;;;;;;;;;5035588;28;20069;-75
2022/09/09 07:56:26;;;;;;;8.48;3.90;;;;;;;;;;5034195;28;20050;-74
2022/09/09 07:58:53;;;;;;;15.73;4.20;;;;;;;;;;5002543;28;20064;-73
2022/09/09 08:01:21;;;;;;;13.00;3.92;;;;;;;;;;5029429;28;20097;-73
2022/09/09 08:03:48;;;;;;;11.32;3.90;;;;;;;;;;5037625;28;20055;-73
2022/09/09 08:06:14;;;;;;;7.80;4.30;;;;;;;;;;5019820;28;20053;-75
2022/09/09 08:08:43;;;;;;;6.82;3.63;;;;;;;;;;5006729;28;20139;-73
2022/09/09 08:11:11;;;;;;;8.95;4.35;;;;;;;;;;5018396;28;20073;-74
2022/09/09 08:13:37;;;;;;;8.60;3.05;;;;;;;;;;5005355;28;20080;-75
2022/09/09 08:16:07;;;;;;;11.10;3.67;;;;;;;;;;5022245;28;20050;-75
2022/09/09 08:18:34;;;;;;;8.27;3.88;;;;;;;;;;5007911;28;20080;-75
2022/09/09 08:21:08;;;;;;;8.95;3.85;;;;;;;;;;5032730;28;20049;-74
2022/09/09 08:23:34;;;;;;;12.88;3.72;;;;;;;;;;5020952;28;20101;-75
2022/09/09 08:26:05;;;;;;;10.38;4.32;;;;;;;;;;5028205;28;20025;-75
2022/09/09 08:28:31;;;;;;;8.60;3.92;;;;;;;;;;5040535;28;20070;-74
2022/09/09 08:31:05;;;;;;;9.52;3.67;;;;;;;;;;5040497;28;20053;-74
2022/09/09 08:33:31;;;;;;;9.32;4.15;;;;;;;;;;5007053;28;20025;-75
2022/09/09 08:35:56;;;;;;;8.90;4.05;;;;;;;;;;5040435;28;20046;-75
2022/09/09 08:38:22;;;;;;;10.45;3.78;;;;;;;;;;5040362;28;20058;-74
2022/09/09 08:40:50;;;;;;;11.18;4.00;;;;;;;;;;5039981;28;20101;-75
2022/09/09 08:43:17;;;;;;;7.50;3.47;;;;;;;;;;5040715;28;20022;-75
2022/09/09 08:46:04;;;;;;;9.38;3.40;;;;;;;;;;5040532;28;20022;-75
2022/09/09 08:48:36;;;;;;;11.93;3.70;;;;;;;;;;5035194;28;20038;-75
2022/09/09 08:51:03;;;;;;;8.90;3.75;;;;;;;;;;5021045;28;20064;-75
2022/09/09 08:53:30;;;;;;;8.68;3.30;;;;;;;;;;5008450;28;20141;-74
2022/09/09 08:55:59;;;;;;;7.45;3.67;;;;;;;;;;5028730;28;20496;-75
2022/09/09 08:58:29;;;;;;;9.52;3.53;;;;;;;;;;5027805;28;20161;-75
2022/09/09 09:00:55;;;;;;;9.15;3.70;;;;;;;;;;5025166;28;20057;-74
2022/09/09 09:03:41;;;;;;;8.68;3.58;;;;;;;;;;5027620;28;20054;-75
2022/09/09 09:06:19;;;;;;;9.40;4.05;;;;;;;;;;5025507;28;20493;-75
2022/09/09 09:08:48;;;;;;;8.50;3.25;;;;;;;;;;5025811;28;20077;-75
2022/09/09 09:11:14;;;;;;;10.38;3.50;;;;;;;;;;5026719;28;20050;-75
2022/09/09 09:13:40;;;;;;;9.20;2.85;;;;;;;;;;5021892;28;20068;-74
2022/09/09 09:16:27;;;;;;;9.65;3.10;;;;;;;;;;5031363;28;20081;-74
2022/09/09 09:18:54;;;;;;;10.15;2.92;;;;;;;;;;5025116;28;20056;-75
2022/09/09 09:21:33;;;;;;;9.73;2.55;;;;;;;;;;5026279;28;20045;-75
2022/09/09 09:24:00;;;;;;;9.88;2.90;;;;;;;;;;5018315;28;20050;-75
2022/09/09 09:26:28;;;;;;;9.88;2.70;;;;;;;;;;5025833;28;20068;-75
2022/09/09 09:28:57;;;;;;;11.88;3.08;;;;;;;;;;5025861;28;20058;-75
2022/09/09 09:31:26;;;;;;;11.20;3.00;;;;;;;;;;5026585;28;20192;-75
2022/09/09 09:33:59;;;;;;;12.70;2.97;;;;;;;;;;5029267;28;20530;-75
2022/09/09 09:36:33;;;;;;;9.93;2.80;;;;;;;;;;5016913;28;20054;-75
2022/09/09 09:39:00;;;;;;;12.63;3.08;;;;;;;;;;5032900;28;20046;-75
2022/09/09 09:41:38;;;;;;;11.82;2.70;;;;;;;;;;5033908;28;20038;-75
2022/09/09 09:44:05;;;;;;;10.48;2.90;;;;;;;;;;5032887;28;20076;-75
2022/09/09 09:46:31;;;;;;;11.23;2.63;;;;;;;;;;5033792;28;20041;-75
2022/09/09 09:49:02;;;;;;;11.02;2.80;;;;;;;;;;5033353;28;20042;-75
2022/09/09 09:51:29;;;;;;;11.60;2.70;;;;;;;;;;5032229;28;20060;-75
2022/09/09 09:54:05;;;;;;;10.65;2.50;;;;;;;;;;5031686;28;20050;-75
2022/09/09 09:56:32;;;;;;;8.48;2.58;;;;;;;;;;5026661;28;20022;-76
2022/09/09 09:58:58;;;;;;;10.85;2.60;;;;;;;;;;5020738;28;20153;-76
2022/09/09 10:01:31;;;;;;;9.70;2.22;;;;;;;;;;5023397;28;20053;-76
2022/09/09 10:04:00;;;;;;;11.52;2.45;;;;;;;;;;5003273;28;20049;-78
2022/09/09 10:06:37;;;;;;;8.50;2.50;;;;;;;;;;4999194;28;20156;-78
2022/09/09 10:09:23;;;;;;;10.05;2.60;;;;;;;;;;5015779;28;20492;-75
2022/09/09 10:11:49;;;;;;;11.00;2.28;;;;;;;;;;4996962;28;20129;-76
2022/09/09 10:14:24;;;;;;;10.70;2.47;;;;;;;;;;5016502;28;20076;-77
2022/09/09 10:16:58;;;;;;;9.65;2.20;;;;;;;;;;5015922;28;20058;-76
2022/09/09 10:19:27;;;;;;;7.78;2.08;;;;;;;;;;5018240;28;20121;-77
2022/09/09 10:22:06;;;;;;;9.30;1.80;;;;;;;;;;5015948;28;20069;-76
2022/09/09 10:24:39;;;;;;;10.00;1.83;;;;;;;;;;5016845;28;20064;-76
2022/09/09 10:27:08;;;;;;;9.70;2.00;;;;;;;;;;4997678;28;20137;-76
2022/09/09 10:29:46;;;;;;;9.77;2.03;;;;;;;;;;5010670;28;20097;-76
2022/09/09 10:32:19;;;;;;;13.18;2.70;;;;;;;;;;4998538;28;20083;-76
2022/09/09 10:34:45;;;;;;;12.15;2.40;;;;;;;;;;5013971;28;20559;-76
2022/09/09 10:37:23;;;;;;;9.55;2.00;;;;;;;;;;5016641;28;20078;-76
2022/09/09 10:39:57;;;;;;;8.68;1.80;;;;;;;;;;5017965;28;20030;-78
2022/09/09 10:42:28;;;;;;;8.07;1.85;;;;;;;;;;5019187;28;20045;-75
2022/09/09 10:45:05;;;;;;;12.05;2.22;;;;;;;;;;5031645;28;20127;-75
2022/09/09 10:47:42;;;;;;;8.38;1.80;;;;;;;;;;5014052;28;20097;-75
2022/09/09 10:50:08;;;;;;;7.45;1.90;;;;;;;;;;5032411;28;20049;-75
2022/09/09 10:52:41;;;;;;;10.75;2.13;;;;;;;;;;5030360;28;20046;-75
2022/09/09 10:55:28;;;;;;;8.77;1.92;;;;;;;;;;5031483;28;20156;-75
2022/09/09 10:57:57;;;;;;;10.02;2.03;;;;;;;;;;5029184;28;20080;-76
2022/09/09 11:00:31;;;;;;;8.18;1.80;;;;;;;;;;5031439;28;20069;-75
2022/09/09 11:03:01;;;;;;;11.07;1.90;;;;;;;;;;5029576;28;20049;-75
2022/09/09 11:05:42;;;;;;;13.07;1.95;;;;;;;;;;5028810;28;20049;-75
2022/09/09 11:08:15;;;;;;;9.43;2.30;;;;;;;;;;5029175;28;20108;-76
2022/09/09 11:10:41;;;;;;;11.23;2.10;;;;;;;;;;5017287;28;20050;-75
2022/09/09 11:13:20;;;;;;;8.13;1.67;;;;;;;;;;5017881;28;20078;-75
2022/09/09 11:15:51;;;;;;;9.73;1.85;;;;;;;;;;5014287;28;20053;-75
2022/09/09 11:18:21;;;;;;;9.70;1.92;;;;;;;;;;5018884;28;20042;-75
2022/09/09 11:20:59;;;;;;;8.30;1.80;;;;;;;;;;5022597;28;20412;-76
2022/09/09 11:23:37;;;;;;;7.47;1.70;;;;;;;;;;5017999;28;20101;-78
2022/09/09 11:26:04;;;;;;;7.93;1.65;;;;;;;;;;4999722;28;20072;-75
2022/09/09 11:28:42;;;;;;;6.95;1.63;;;;;;;;;;5005990;28;20153;-79
2022/09/09 11:31:28;;;;;;;7.25;1.42;;;;;;;;;;5013479;28;20125;-77
2022/09/09 11:33:54;;;;;;;8.27;1.60;;;;;;;;;;5007418;28;20522;-76
2022/09/09 11:36:53;;;;;;;7.85;1.50;;;;;;;;;;5012948;28;20046;-78
2022/09/09 11:39:31;;;;;;;7.93;1.60;;;;;;;;;;4972055;28;20059;-77
2022/09/09 11:42:26;;;;;;;8.52;1.90;;;;;;;;;;4970097;28;20061;-77
2022/09/09 11:44:54;;;;;;;8.57;1.60;;;;;;;;;;4962817;28;20065;-77
2022/09/09 11:47:29;;;;;;;8.00;1.50;;;;;;;;;;4974667;28;20043;-77
2022/09/09 11:49:55;;;;;;;8.82;1.55;;;;;;;;;;4974771;28;20059;-75
2022/09/09 11:52:26;;;;;;;11.38;1.70;;;;;;;;;;4978893;28;20074;-74
2022/09/09 11:54:52;;;;;;;;;;;;;;;;;;4975720;28;20203;-73
2022/09/09 11:57:26;;;;;;;9.50;1.58;;;;;;;;;;4974603;28;19968;-75
2022/09/09 11:59:52;;;;;;;8.57;1.60;;;;;;;;;;4974169;28;20110;-74
2022/09/09 12:02:30;;;;;;;6.97;1.58;;;;;;;;;;4961698;28;20059;-73
2022/09/09 12:04:57;;;;;;;7.38;1.55;;;;;;;;;;4981553;28;20054;-74
2022/09/09 12:07:32;;;;;;;8.80;1.30;;;;;;;;;;4981834;28;20062;-74
2022/09/09 12:09:59;;;;;;;8.18;1.58;;;;;;;;;;4968056;28;20054;-74
2022/09/09 12:12:25;;;;;;;7.13;1.30;;;;;;;;;;4986025;28;20058;-74
2022/09/09 12:14:57;;;;;;;9.88;1.90;;;;;;;;;;5000140;28;20496;-74
2022/09/09 12:17:24;;;;;;;8.45;1.58;;;;;;;;;;5023223;28;20060;-74
2022/09/09 12:20:09;;;;;;;6.75;1.10;;;;;;;;;;5029358;28;20054;-73
2022/09/09 12:22:35;;;;;;;7.57;1.25;;;;;;;;;;5046604;28;20073;-73
2022/09/09 12:25:08;;;;;;;7.63;1.40;;;;;;;;;;5030377;28;20054;-73
2022/09/09 12:27:37;;;;;;;8.85;1.55;;;;;;;;;;5025800;28;20054;-74
2022/09/09 12:30:16;;;;;;;7.32;1.45;;;;;;;;;;5028667;28;20089;-73
2022/09/09 12:32:44;;;;;;;6.63;1.50;;;;;;;;;;5028880;28;20057;-73
2022/09/09 12:35:10;;;;;;;6.97;1.35;;;;;;;;;;5028459;28;20072;-74
2022/09/09 12:37:43;;;;;;;6.70;1.60;;;;;;;;;;5027466;28;20073;-73
2022/09/09 12:40:19;;;;;;;7.03;1.20;;;;;;;;;;5025533;28;20057;-73
2022/09/09 12:42:45;;;;;;;6.72;1.15;;;;;;;;;;5026368;28;20061;-74
2022/09/09 12:45:22;;;;;;;7.07;1.40;;;;;;;;;;5025239;28;20045;-73
2022/09/09 12:47:54;;;;;;;6.40;1.38;;;;;;;;;;5024315;28;20100;-73
2022/09/09 12:50:22;;;;;;;7.85;1.25;;;;;;;;;;5023871;28;20080;-73
2022/09/09 12:52:49;;;;;;;7.85;0.95;;;;;;;;;;5027927;28;20508;-74
2022/09/09 12:55:21;;;;;;;5.85;1.20;;;;;;;;;;5023865;28;20046;-73
2022/09/09 12:57:50;;;;;;;5.30;1.23;;;;;;;;;;5028291;28;20136;-73
2022/09/09 13:00:22;;;;;;;11.35;1.20;;;;;;;;;;5030080;28;20042;-73
2022/09/09 13:02:48;;;;;;;6.32;1.27;;;;;;;;;;5027824;28;20050;-73
2022/09/09 13:05:22;;;;;;;6.25;1.33;;;;;;;;;;5027290;28;20050;-74
2022/09/09 13:07:49;;;;;;;6.15;1.25;;;;;;;;;;5022659;28;20050;-76
2022/09/09 13:10:20;;;;;;;9.32;1.50;;;;;;;;;;5022298;28;20042;-75
2022/09/09 13:12:47;;;;;;;6.43;1.45;;;;;;;;;;5026879;28;20041;-75
2022/09/09 13:15:20;;;;;;;8.57;1.45;;;;;;;;;;5021622;28;20194;-78
2022/09/09 13:17:50;;;;;;;9.95;1.70;;;;;;;;;;5004794;28;20037;-78
2022/09/09 13:20:19;;;;;;;9.65;1.58;;;;;;;;;;5015196;28;20099;-77
2022/09/09 13:22:48;;;;;;;10.13;1.67;;;;;;;;;;5027117;28;20041;-76
2022/09/09 13:25:19;;;;;;;8.27;1.30;;;;;;;;;;5019865;28;20076;-75
2022/09/09 13:28:05;;;;;;;5.57;1.10;;;;;;;;;;5012905;28;20053;-75
2022/09/09 13:30:35;;;;;;;9.38;1.42;;;;;;;;;;5020759;28;20042;-75
2022/09/09 13:33:22;;;;;;;7.93;1.50;;;;;;;;;;5003237;28;20053;-74
2022/09/09 13:35:49;;;;;;;7.13;1.45;;;;;;;;;;5023633;28;20092;-73
2022/09/09 13:38:15;;;;;;;8.73;1.55;;;;;;;;;;5033066;28;20045;-74
2022/09/09 13:40:52;;;;;;;6.88;1.30;;;;;;;;;;5030879;28;20053;-73
2022/09/09 13:43:21;;;;;;;12.00;1.70;;;;;;;;;;5024154;28;20058;-73
2022/09/09 13:45:53;;;;;;;14.70;2.20;;;;;;;;;;5024029;28;20068;-73
2022/09/09 13:48:19;;;;;;;10.15;1.65;;;;;;;;;;5046977;28;20052;-73
2022/09/09 13:50:54;;;;;;;6.68;1.30;;;;;;;;;;5037764;28;20065;-73
2022/09/09 13:53:20;;;;;;;7.43;1.50;;;;;;;;;;5037189;28;20038;-74
2022/09/09 13:55:46;;;;;;;8.73;1.48;;;;;;;;;;5047361;28;20057;-76
2022/09/09 13:58:18;;;;;;;9.85;1.52;;;;;;;;;;5051095;28;20029;-75
2022/09/09 14:00:44;;;;;;;8.98;1.30;;;;;;;;;;5016524;28;20073;-75
2022/09/09 14:03:11;;;;;;;7.32;1.55;;;;;;;;;;5035670;28;20040;-74
2022/09/09 14:05:37;;;;;;;17.58;2.53;;;;;;;;;;5018095;28;20040;-78
2022/09/09 14:08:04;;;;;;;10.35;1.55;;;;;;;;;;5009382;28;20038;-75
2022/09/09 14:10:30;;;;;;;8.00;1.80;;;;;;;;;;5010710;28;20042;-74
2022/09/09 14:12:56;;;;;;;13.02;1.90;;;;;;;;;;5030327;28;20077;-75
2022/09/09 14:15:22;;;;;;;9.38;1.88;;;;;;;;;;5035621;28;20036;-75
2022/09/09 14:17:48;;;;;;;7.32;1.35;;;;;;;;;;5043577;28;20076;-73
2022/09/09 14:20:15;;;;;;;6.28;1.35;;;;;;;;;;5040513;28;20103;-75
2022/09/09 14:22:41;;;;;;;6.97;1.38;;;;;;;;;;5031276;28;20145;-74
2022/09/09 14:25:08;;;;;;;8.02;1.63;;;;;;;;;;5037895;28;20025;-75
2022/09/09 14:27:34;;;;;;;6.93;1.50;;;;;;;;;;5044204;28;20044;-75
2022/09/09 14:30:00;;;;;;;8.55;1.60;;;;;;;;;;5034706;28;20084;-76
2022/09/09 14:32:27;;;;;;;8.15;1.20;;;;;;;;;;5024836;28;20407;-75
2022/09/09 14:34:53;;;;;;;10.10;1.23;;;;;;;;;;5030443;28;20042;-74
2022/09/09 14:37:20;;;;;;;9.18;1.20;;;;;;;;;;5032044;28;20046;-76
2022/09/09 14:39:47;;;;;;;11.25;1.17;;;;;;;;;;5032632;28;20574;-76
2022/09/09 14:42:13;;;;;;;6.20;1.02;;;;;;;;;;5030780;28;20077;-78
2022/09/09 14:44:40;;;;;;;4.70;0.82;;;;;;;;;;5012375;28;20125;-75
2022/09/09 14:47:07;;;;;;;3.88;0.70;;;;;;;;;;5026695;28;20050;-74
2022/09/09 14:49:34;;;;;;;2.65;0.40;;;;;;;;;;5035425;28;20021;-77
2022/09/09 14:52:00;;;;;;;2.08;0.32;;;;;;;;;;4999580;28;20427;-78